createdAt,value
2023-02-03T00:00:09.232Z,103077.19
2023-02-03T00:02:37.390Z,103068.16
2023-02-03T00:05:06.115Z,103070.56
2023-02-03T00:07:34.901Z,103075.81
2023-02-03T00:10:03.890Z,103071.16
2023-02-03T00:12:31.622Z,103079.06
2023-02-03T00:15:00.770Z,103076.78
2023-02-03T00:17:28.644Z,103077.72
2023-02-03T00:19:56.342Z,103076.63
2023-02-03T00:22:24.105Z,103072.00
2023-02-03T00:24:51.818Z,103075.56
2023-02-03T00:27:19.582Z,103075.59
2023-02-03T00:29:47.335Z,103069.47
2023-02-03T00:32:16.509Z,103066.75
2023-02-03T00:34:44.347Z,103074.63
2023-02-03T00:37:13.663Z,103071.09
2023-02-03T00:39:41.463Z,103064.19
2023-02-03T00:42:09.184Z,103082.69
2023-02-03T00:44:36.969Z,103076.22
2023-02-03T00:47:04.735Z,103072.59
2023-02-03T00:49:33.826Z,103070.19
2023-02-03T00:52:01.659Z,103067.53
2023-02-03T00:54:29.459Z,103060.13
2023-02-03T00:56:57.583Z,103069.34
2023-02-03T00:59:25.306Z,103077.34
2023-02-03T01:01:53.252Z,103071.22
2023-02-03T01:04:21.164Z,103074.81
2023-02-03T01:06:50.296Z,103078.13
2023-02-03T01:09:18.079Z,103078.19
2023-02-03T01:11:45.781Z,103082.03
2023-02-03T01:14:13.504Z,103074.69
2023-02-03T01:16:41.275Z,103077.91
2023-02-03T01:19:09.329Z,103071.16
2023-02-03T01:21:37.365Z,103069.84
2023-02-03T01:24:06.615Z,103069.19
2023-02-03T01:26:34.351Z,103069.56
2023-02-03T01:29:02.315Z,103064.69
2023-02-03T01:31:31.864Z,103069.56
2023-02-03T01:34:00.126Z,103073.69
2023-02-03T01:36:30.060Z,103061.22
2023-02-03T01:38:58.030Z,103066.34
2023-02-03T01:41:29.186Z,103068.00
2023-02-03T01:43:58.863Z,103061.00
2023-02-03T01:46:31.315Z,103055.31
2023-02-03T01:49:06.243Z,103058.81
2023-02-03T01:51:34.003Z,103049.81
2023-02-03T01:54:02.650Z,103055.97
2023-02-03T01:56:36.158Z,103051.41
2023-02-03T01:59:03.838Z,103052.72
2023-02-03T02:01:33.077Z,103051.88
2023-02-03T02:04:03.819Z,103054.38
2023-02-03T02:06:31.865Z,103054.34
2023-02-03T02:09:01.595Z,103052.56
2023-02-03T02:11:31.072Z,103044.41
2023-02-03T02:14:03.167Z,103043.56
2023-02-03T02:16:42.270Z,103053.34
2023-02-03T02:19:43.860Z,103047.97
2023-02-03T02:22:19.550Z,103043.56
2023-02-03T02:25:20.225Z,103027.56
2023-02-03T02:28:11.312Z,103024.97
2023-02-03T02:31:06.033Z,103020.50
2023-02-03T02:33:42.996Z,103011.63
2023-02-03T02:36:20.967Z,103016.06
2023-02-03T02:38:58.972Z,103013.34
2023-02-03T02:41:32.861Z,103009.78
2023-02-03T02:44:06.030Z,103014.31
2023-02-03T02:46:38.748Z,103011.72
2023-02-03T02:49:14.306Z,102998.56
2023-02-03T02:51:45.210Z,103002.31
2023-02-03T02:54:18.334Z,102998.78
2023-02-03T02:56:50.695Z,102988.88
2023-02-03T02:59:18.642Z,102995.94
2023-02-03T03:01:46.470Z,102994.19
2023-02-03T03:04:19.283Z,102994.13
2023-02-03T03:06:50.162Z,102990.53
2023-02-03T03:09:23.007Z,102988.78
2023-02-03T03:11:52.580Z,102986.97
2023-02-03T03:14:23.343Z,103002.16
2023-02-03T03:17:01.001Z,103001.25
2023-02-03T03:19:33.815Z,102995.84
2023-02-03T03:22:05.090Z,103006.78
2023-02-03T03:24:35.882Z,102995.38
2023-02-03T03:27:09.239Z,103001.25
2023-02-03T03:29:43.057Z,103001.31
2023-02-03T03:32:11.231Z,103005.97
2023-02-03T03:34:41.217Z,103003.84
2023-02-03T03:37:15.218Z,103012.59
2023-02-03T03:39:48.442Z,103008.84
2023-02-03T03:42:24.407Z,103009.75
2023-02-03T03:44:57.660Z,102995.69
2023-02-03T03:47:32.178Z,103001.16
2023-02-03T03:50:03.631Z,103001.69
2023-02-03T03:52:35.412Z,103002.56
2023-02-03T03:55:04.476Z,103004.25
2023-02-03T03:57:36.606Z,103009.47
2023-02-03T04:00:10.174Z,103005.84
2023-02-03T04:02:41.120Z,102996.97
2023-02-03T04:05:13.065Z,102989.75
2023-02-03T04:07:42.830Z,102986.31
2023-02-03T04:10:19.525Z,102996.22
2023-02-03T04:12:47.237Z,102999.13
2023-02-03T04:15:15.016Z,103001.41
2023-02-03T04:17:42.808Z,102995.22
2023-02-03T04:20:13.625Z,102995.88
2023-02-03T04:22:41.375Z,102992.47
2023-02-03T04:25:09.672Z,103006.78
2023-02-03T04:27:37.492Z,103014.53
2023-02-03T04:30:06.436Z,103003.63
2023-02-03T04:32:35.436Z,103006.34
2023-02-03T04:35:04.083Z,103006.53
2023-02-03T04:37:33.311Z,103007.44
2023-02-03T04:40:01.151Z,103000.16
2023-02-03T04:42:29.394Z,103008.94
2023-02-03T04:44:57.166Z,103012.50
2023-02-03T04:47:24.898Z,103001.69
2023-02-03T04:49:52.615Z,103005.19
2023-02-03T04:52:20.310Z,103000.84
2023-02-03T04:54:49.496Z,103005.22
2023-02-03T04:57:17.222Z,103006.25
2023-02-03T04:59:45.022Z,103013.59
2023-02-03T05:02:12.723Z,103004.78
2023-02-03T05:04:40.443Z,103002.28
2023-02-03T05:07:08.241Z,103000.63
2023-02-03T05:09:35.955Z,102989.97
2023-02-03T05:12:05.512Z,102993.63
2023-02-03T05:14:33.192Z,102994.50
2023-02-03T05:17:01.028Z,102993.34
2023-02-03T05:19:28.744Z,102995.28
2023-02-03T05:21:56.515Z,102996.88
2023-02-03T05:24:24.208Z,102993.09
2023-02-03T05:26:52.071Z,103005.25
2023-02-03T05:29:21.339Z,102999.81
2023-02-03T05:31:49.058Z,102989.31
2023-02-03T05:34:16.847Z,102991.72
2023-02-03T05:36:44.661Z,102980.16
2023-02-03T05:39:12.350Z,102988.09
2023-02-03T05:41:57.205Z,102999.81
2023-02-03T05:44:29.102Z,103006.97
2023-02-03T05:46:58.112Z,103008.00
2023-02-03T05:49:26.289Z,103005.44
2023-02-03T05:51:56.084Z,103016.03
2023-02-03T05:54:24.151Z,103016.97
2023-02-03T05:56:52.408Z,103022.44
2023-02-03T05:59:20.106Z,103016.19
2023-02-03T06:01:49.388Z,103017.88
2023-02-03T06:04:17.363Z,103023.47
2023-02-03T06:06:45.090Z,103020.03
2023-02-03T06:09:12.897Z,103021.50
2023-02-03T06:11:42.679Z,103023.06
2023-02-03T06:14:10.402Z,103029.97
2023-02-03T06:16:38.200Z,103028.06
2023-02-03T06:19:07.377Z,103029.78
2023-02-03T06:21:35.095Z,103024.44
2023-02-03T06:24:03.598Z,103027.41
2023-02-03T06:26:31.611Z,103029.59
2023-02-03T06:28:59.323Z,103026.22
2023-02-03T06:31:27.145Z,103030.72
2023-02-03T06:33:57.194Z,103041.50
2023-02-03T06:36:26.312Z,103042.38
2023-02-03T06:38:54.023Z,103046.78
2023-02-03T06:41:27.373Z,103050.38
2023-02-03T06:43:55.151Z,103047.69
2023-02-03T06:46:23.010Z,103038.97
2023-02-03T06:48:50.745Z,103045.28
2023-02-03T06:51:18.615Z,103048.63
2023-02-03T06:53:47.771Z,103044.75
2023-02-03T06:56:15.548Z,103048.06
2023-02-03T06:58:44.447Z,103044.34
2023-02-03T07:01:12.214Z,103044.44
2023-02-03T07:03:39.964Z,103048.81
2023-02-03T07:06:08.554Z,103054.19
2023-02-03T07:08:36.263Z,103057.81
2023-02-03T07:11:06.119Z,103053.22
2023-02-03T07:13:33.909Z,103055.91
2023-02-03T07:16:01.733Z,103050.50
2023-02-03T07:18:47.869Z,103050.53
2023-02-03T07:21:16.620Z,103052.31
2023-02-03T07:23:44.534Z,103052.25
2023-02-03T07:26:13.641Z,103057.50
2023-02-03T07:28:41.670Z,103057.41
2023-02-03T07:31:10.403Z,103059.03
2023-02-03T07:33:38.889Z,103064.59
2023-02-03T07:36:08.733Z,103059.78
2023-02-03T07:38:37.944Z,103067.69
2023-02-03T07:41:05.971Z,103070.34
2023-02-03T07:43:35.140Z,103069.09
2023-02-03T07:46:02.938Z,103078.50
2023-02-03T07:48:30.653Z,103075.38
2023-02-03T07:50:58.363Z,103077.03
2023-02-03T07:53:26.079Z,103084.97
2023-02-03T07:55:53.789Z,103082.28
2023-02-03T07:58:21.514Z,103083.16
2023-02-03T08:00:50.611Z,103087.69
2023-02-03T08:03:18.316Z,103092.97
2023-02-03T08:05:46.046Z,103108.19
2023-02-03T08:08:13.852Z,103109.09
2023-02-03T08:10:41.612Z,103108.19
2023-02-03T08:13:09.346Z,103108.13
2023-02-03T08:15:37.422Z,103111.66
2023-02-03T08:18:08.734Z,103118.97
2023-02-03T08:20:36.823Z,103123.69
2023-02-03T08:23:04.530Z,103118.97
2023-02-03T08:25:32.607Z,103125.13
2023-02-03T08:28:00.419Z,103122.59
2023-02-03T08:30:28.590Z,103124.41
2023-02-03T08:32:56.691Z,103121.13
2023-02-03T08:35:26.195Z,103128.38
2023-02-03T08:37:53.935Z,103136.19
2023-02-03T08:40:21.968Z,103141.56
2023-02-03T08:42:49.828Z,103133.75
2023-02-03T08:45:17.581Z,103143.50
2023-02-03T08:47:45.351Z,103143.09
2023-02-03T08:50:13.536Z,103155.31
2023-02-03T08:52:42.658Z,103151.59
2023-02-03T08:55:11.524Z,103146.88
2023-02-03T08:57:39.974Z,103144.28
2023-02-03T09:00:09.000Z,103159.31
2023-02-03T09:02:36.838Z,103164.53
2023-02-03T09:05:04.737Z,103164.25
2023-02-03T09:07:32.588Z,103172.09
2023-02-03T09:10:01.653Z,103168.47
2023-02-03T09:12:29.400Z,103180.78
2023-02-03T09:14:57.139Z,103180.03
2023-02-03T09:17:24.852Z,103184.97
2023-02-03T09:19:52.624Z,103188.50
2023-02-03T09:22:20.477Z,103191.97
2023-02-03T09:24:50.607Z,103192.16
2023-02-03T09:27:19.856Z,103197.88
2023-02-03T09:29:47.547Z,103190.75
2023-02-03T09:32:15.881Z,103189.84
2023-02-03T09:34:43.742Z,103194.28
2023-02-03T09:37:11.560Z,103192.47
2023-02-03T09:39:39.317Z,103193.97
2023-02-03T09:42:34.860Z,103200.06
2023-02-03T09:45:11.708Z,103194.81
2023-02-03T09:47:43.294Z,103192.53
2023-02-03T09:50:15.634Z,103192.16
2023-02-03T09:52:45.249Z,103199.66
2023-02-03T09:55:25.479Z,103194.00
2023-02-03T09:58:01.804Z,103197.97
2023-02-03T10:00:33.712Z,103196.47
2023-02-03T10:03:08.463Z,103200.00
2023-02-03T10:05:58.533Z,103198.13
2023-02-03T10:08:36.101Z,103192.47
2023-02-03T10:11:18.179Z,103197.03
2023-02-03T10:13:57.185Z,103195.38
2023-02-03T10:16:38.867Z,103197.56
2023-02-03T10:19:13.159Z,103195.00
2023-02-03T10:21:44.445Z,103190.56
2023-02-03T10:24:16.774Z,103197.66
2023-02-03T10:26:44.525Z,103183.91
2023-02-03T10:29:21.284Z,103209.28
2023-02-03T10:31:49.564Z,103194.56
2023-02-03T10:34:19.831Z,103194.63
2023-02-03T10:36:57.500Z,103186.50
2023-02-03T10:39:32.214Z,103183.03
2023-02-03T10:42:00.791Z,103195.69
2023-02-03T10:44:37.491Z,103190.44
2023-02-03T10:47:19.343Z,103189.78
2023-02-03T10:49:47.377Z,103185.13
2023-02-03T10:52:27.666Z,103189.66
2023-02-03T10:54:55.989Z,103190.50
2023-02-03T10:57:24.222Z,103201.09
2023-02-03T10:59:53.450Z,103189.06
2023-02-03T11:02:26.952Z,103190.31
2023-02-03T11:05:12.615Z,103190.50
2023-02-03T11:07:40.374Z,103192.22
2023-02-03T11:10:30.896Z,103195.88
2023-02-03T11:13:19.234Z,103192.44
2023-02-03T11:15:57.026Z,103182.63
2023-02-03T11:18:45.415Z,103187.09
2023-02-03T11:21:19.366Z,103189.53
2023-02-03T11:23:50.943Z,103193.13
2023-02-03T11:26:22.176Z,103181.72
2023-02-03T11:28:52.658Z,103182.72
2023-02-03T11:31:25.344Z,103180.69
2023-02-03T11:33:57.762Z,103178.22
2023-02-03T11:36:28.374Z,103174.66
2023-02-03T11:39:11.655Z,103178.31
2023-02-03T11:41:41.160Z,103171.28
2023-02-03T11:44:14.166Z,103175.19
2023-02-03T11:46:44.325Z,103173.38
2023-02-03T11:49:33.785Z,103174.75
2023-02-03T11:52:11.795Z,103175.84
2023-02-03T11:54:48.850Z,103181.38
2023-02-03T11:57:31.873Z,103169.72
2023-02-03T12:00:13.110Z,103161.66
2023-02-03T12:03:19.576Z,103167.66
2023-02-03T12:06:03.246Z,103165.72
2023-02-03T12:08:40.048Z,103167.56
2023-02-03T12:11:18.473Z,103165.63
2023-02-03T12:14:11.963Z,103161.41
2023-02-03T12:17:02.130Z,103163.81
2023-02-03T12:19:45.373Z,103158.09
2023-02-03T12:22:21.318Z,103159.94
2023-02-03T12:25:00.699Z,103159.84
2023-02-03T12:27:43.977Z,103156.84
2023-02-03T12:30:19.551Z,103159.81
2023-02-03T12:32:52.301Z,103157.25
2023-02-03T12:35:24.352Z,103149.69
2023-02-03T12:38:00.167Z,103150.34
2023-02-03T12:40:36.870Z,103154.06
2023-02-03T12:43:20.202Z,103162.06
2023-02-03T12:45:55.770Z,103153.34
2023-02-03T12:48:29.477Z,103147.84
2023-02-03T12:51:02.338Z,103146.97
2023-02-03T12:53:35.654Z,103149.09
2023-02-03T12:56:06.460Z,103151.38
2023-02-03T12:58:39.038Z,103147.72
2023-02-03T13:01:10.409Z,103146.88
2023-02-03T13:03:45.584Z,103147.81
2023-02-03T13:06:17.763Z,103146.69
2023-02-03T13:08:55.332Z,103144.19
2023-02-03T13:11:30.073Z,103144.84
2023-02-03T13:14:05.011Z,103137.59
2023-02-03T13:16:38.181Z,103126.75
2023-02-03T13:19:11.918Z,103132.56
2023-02-03T13:21:39.710Z,103126.50
2023-02-03T13:24:10.635Z,103129.03
2023-02-03T13:27:04.976Z,103116.75
2023-02-03T13:29:54.387Z,103114.63
2023-02-03T13:32:40.364Z,103118.78
2023-02-03T13:35:33.138Z,103106.75
2023-02-03T13:38:27.262Z,103107.53
2023-02-03T13:41:06.295Z,103106.75
2023-02-03T13:43:39.142Z,103110.34
2023-02-03T13:46:20.326Z,103097.78
2023-02-03T13:48:49.166Z,103094.53
2023-02-03T13:51:21.121Z,103102.81
2023-02-03T13:53:51.754Z,103103.84
2023-02-03T13:56:23.048Z,103102.28
2023-02-03T13:59:02.658Z,103097.13
2023-02-03T14:01:38.839Z,103097.88
2023-02-03T14:04:09.119Z,103093.75
2023-02-03T14:07:01.819Z,103091.38
2023-02-03T14:09:55.499Z,103088.13
2023-02-03T14:12:37.082Z,103088.78
2023-02-03T14:15:23.910Z,103084.78
2023-02-03T14:18:27.267Z,103088.41
2023-02-03T14:21:23.396Z,103094.03
2023-02-03T14:24:03.319Z,103094.19
2023-02-03T14:26:39.843Z,103095.44
2023-02-03T14:29:10.760Z,103089.72
2023-02-03T14:31:58.914Z,103092.91
2023-02-03T14:34:35.597Z,103093.34
2023-02-03T14:37:22.688Z,103086.41
2023-02-03T14:40:25.619Z,103088.22
2023-02-03T14:43:15.122Z,103083.25
2023-02-03T14:46:00.735Z,103085.44
2023-02-03T14:48:47.503Z,103081.91
2023-02-03T14:51:27.797Z,103082.47
2023-02-03T14:54:17.999Z,103082.16
2023-02-03T14:57:13.941Z,103078.16
2023-02-03T14:59:45.649Z,103076.34
2023-02-03T15:02:20.987Z,103082.06
2023-02-03T15:04:50.733Z,103077.66
2023-02-03T15:07:48.488Z,103071.81
2023-02-03T15:10:19.631Z,103072.81
2023-02-03T15:12:50.108Z,103072.00
2023-02-03T15:15:23.156Z,103076.22
2023-02-03T15:17:54.776Z,103084.97
2023-02-03T15:20:30.525Z,103081.25
2023-02-03T15:22:58.599Z,103082.81
2023-02-03T15:25:28.376Z,103081.28
2023-02-03T15:27:56.398Z,103084.00
2023-02-03T15:30:28.046Z,103079.13
2023-02-03T15:33:04.913Z,103084.56
2023-02-03T15:35:35.446Z,103079.66
2023-02-03T15:38:07.320Z,103088.97
2023-02-03T15:40:39.366Z,103089.22
2023-02-03T15:43:13.455Z,103094.44
2023-02-03T15:45:46.031Z,103098.47
2023-02-03T15:48:29.324Z,103096.47
2023-02-03T15:51:02.669Z,103098.88
2023-02-03T15:53:46.903Z,103106.59
2023-02-03T15:56:22.748Z,103102.38
2023-02-03T15:58:51.417Z,103108.09
2023-02-03T16:01:26.065Z,103105.06
2023-02-03T16:03:58.078Z,103108.44
2023-02-03T16:06:30.404Z,103110.22
2023-02-03T16:08:59.572Z,103115.81
2023-02-03T16:11:33.899Z,103116.91
2023-02-03T16:14:04.405Z,103121.59
2023-02-03T16:16:38.346Z,103118.53
2023-02-03T16:19:14.217Z,103123.53
2023-02-03T16:21:54.302Z,103128.34
2023-02-03T16:24:40.257Z,103129.50
2023-02-03T16:27:34.097Z,103126.72
2023-02-03T16:30:41.409Z,103127.94
2023-02-03T16:33:33.778Z,103139.63
2023-02-03T16:36:29.623Z,103133.44
2023-02-03T16:39:14.986Z,103129.66
2023-02-03T16:42:00.337Z,103130.66
2023-02-03T16:44:45.734Z,103139.34
2023-02-03T16:47:42.319Z,103137.56
2023-02-03T16:50:38.229Z,103147.38
2023-02-03T16:53:13.397Z,103143.91
2023-02-03T16:55:41.353Z,103142.19
2023-02-03T16:58:09.594Z,103146.69
2023-02-03T17:00:41.308Z,103151.50
2023-02-03T17:03:09.458Z,103153.56
2023-02-03T17:05:38.422Z,103153.09
2023-02-03T17:08:06.636Z,103152.88
2023-02-03T17:10:36.583Z,103159.81
2023-02-03T17:13:04.981Z,103162.38
2023-02-03T17:15:33.247Z,103159.84
2023-02-03T17:18:01.137Z,103158.22
2023-02-03T17:20:28.919Z,103164.63
2023-02-03T17:22:56.661Z,103169.72
2023-02-03T17:25:24.628Z,103170.50
2023-02-03T17:27:53.798Z,103174.09
2023-02-03T17:30:21.736Z,103166.25
2023-02-03T17:32:49.563Z,103166.47
2023-02-03T17:35:17.507Z,103174.31
2023-02-03T17:37:45.183Z,103172.78
2023-02-03T17:54:06.537Z,103177.03
2023-02-03T17:56:36.324Z,103185.03
2023-02-03T17:59:06.551Z,103184.38
2023-02-03T18:01:34.300Z,103193.38
2023-02-03T18:04:04.590Z,103183.78
2023-02-03T18:06:35.109Z,103195.44
2023-02-03T18:09:03.145Z,103192.44
2023-02-03T18:11:32.472Z,103188.94
2023-02-03T18:14:01.015Z,103189.34
2023-02-03T18:16:33.383Z,103189.88
2023-02-03T18:19:02.828Z,103191.59
2023-02-03T18:21:32.265Z,103198.34
2023-02-03T18:24:01.876Z,103193.53
2023-02-03T18:26:32.576Z,103188.97
2023-02-03T18:29:00.282Z,103189.69
2023-02-03T18:31:28.487Z,103188.84
2023-02-03T18:33:57.764Z,103196.91
2023-02-03T18:36:25.673Z,103191.66
2023-02-03T18:38:53.374Z,103194.34
2023-02-03T18:41:23.455Z,103197.19
2023-02-03T18:43:51.408Z,103199.22
2023-02-03T18:46:21.161Z,103200.25
2023-02-03T18:48:49.262Z,103192.44
2023-02-03T18:51:21.526Z,103203.91
2023-02-03T18:53:50.072Z,103202.84
2023-02-03T18:56:20.546Z,103198.97
2023-02-03T18:58:49.047Z,103198.19
2023-02-03T19:01:25.424Z,103207.84
2023-02-03T19:03:54.703Z,103210.63
2023-02-03T19:06:24.506Z,103208.69
2023-02-03T19:08:52.473Z,103215.94
2023-02-03T19:11:21.155Z,103214.88
2023-02-03T19:13:49.125Z,103209.91
2023-02-03T19:16:20.411Z,103210.78
2023-02-03T19:18:48.994Z,103222.44
2023-02-03T19:21:17.414Z,103221.34
2023-02-03T19:23:46.558Z,103216.75
2023-02-03T19:26:14.482Z,103219.84
2023-02-03T19:28:42.336Z,103212.06
2023-02-03T19:31:13.296Z,103208.31
2023-02-03T19:33:41.069Z,103226.97
2023-02-03T19:36:10.120Z,103221.63
2023-02-03T19:38:38.498Z,103223.38
2023-02-03T19:41:09.608Z,103228.69
2023-02-03T19:43:37.330Z,103223.44
2023-02-03T19:46:05.310Z,103229.84
2023-02-03T19:48:33.315Z,103235.13
2023-02-03T19:51:01.091Z,103233.00
2023-02-03T19:53:28.896Z,103233.88
2023-02-03T19:55:56.652Z,103237.56
2023-02-03T19:58:25.978Z,103237.44
2023-02-03T20:00:54.098Z,103235.38
2023-02-03T20:03:22.746Z,103220.97
2023-02-03T20:05:50.910Z,103229.09
2023-02-03T20:08:18.683Z,103235.22
2023-02-03T20:10:46.745Z,103240.72
2023-02-03T20:13:15.030Z,103234.41
2023-02-03T20:15:46.791Z,103238.00
2023-02-03T20:18:14.570Z,103238.41
2023-02-03T20:20:42.426Z,103245.34
2023-02-03T20:23:10.347Z,103245.44
2023-02-03T20:25:38.169Z,103243.84
2023-02-03T20:28:06.003Z,103243.44
2023-02-03T20:30:34.031Z,103248.97
2023-02-03T20:33:04.692Z,103241.91
2023-02-03T20:35:32.625Z,103241.84
2023-02-03T20:38:00.369Z,103242.69
2023-02-03T20:40:29.798Z,103241.78
2023-02-03T20:43:02.522Z,103247.31
2023-02-03T20:45:31.163Z,103249.00
2023-02-03T20:47:59.412Z,103247.09
2023-02-03T20:50:40.570Z,103255.19
2023-02-03T20:53:13.876Z,103248.97
2023-02-03T20:55:42.085Z,103241.84
2023-02-03T20:58:18.099Z,103242.13
2023-02-03T21:00:46.359Z,103248.25
2023-02-03T21:03:33.586Z,103252.84
2023-02-03T21:06:03.512Z,103253.50
2023-02-03T21:08:31.534Z,103247.28
2023-02-03T21:10:59.290Z,103243.63
2023-02-03T21:13:29.272Z,103236.44
2023-02-03T21:15:59.611Z,103240.13
2023-02-03T21:18:33.814Z,103236.47
2023-02-03T21:21:03.504Z,103241.00
2023-02-03T21:23:39.795Z,103248.03
2023-02-03T21:26:17.992Z,103244.50
2023-02-03T21:28:46.060Z,103239.09
2023-02-03T21:31:21.795Z,103237.31
2023-02-03T21:33:50.052Z,103241.91
2023-02-03T21:36:20.985Z,103243.75
2023-02-03T21:38:51.245Z,103249.09
2023-02-03T21:41:21.139Z,103246.69
2023-02-03T21:43:51.923Z,103242.19
2023-02-03T21:46:23.973Z,103243.94
2023-02-03T21:48:54.266Z,103234.88
2023-02-03T21:51:26.526Z,103241.25
2023-02-03T21:53:56.438Z,103245.66
2023-02-03T21:56:26.276Z,103244.00
2023-02-03T21:58:57.598Z,103246.44
2023-02-03T22:01:26.521Z,103242.78
2023-02-03T22:03:55.607Z,103240.28
2023-02-03T22:06:27.455Z,103238.28
2023-02-03T22:08:57.761Z,103243.53
2023-02-03T22:11:28.403Z,103248.13
2023-02-03T22:13:56.950Z,103252.41
2023-02-03T22:16:24.947Z,103248.13
2023-02-03T22:18:53.341Z,103250.91
2023-02-03T22:21:21.206Z,103251.00
2023-02-03T22:23:50.397Z,103252.84
2023-02-03T22:26:18.775Z,103252.91
2023-02-03T22:28:46.634Z,103251.53
2023-02-03T22:31:15.443Z,103252.22
2023-02-03T22:33:43.610Z,103251.19
2023-02-03T22:36:11.874Z,103256.72
2023-02-03T22:38:40.684Z,103250.22
2023-02-03T22:41:11.814Z,103248.25
2023-02-03T22:43:39.795Z,103251.84
2023-02-03T22:46:08.356Z,103252.66
2023-02-03T22:48:36.521Z,103255.22
2023-02-03T22:51:04.996Z,103251.75
2023-02-03T22:53:34.675Z,103249.06
2023-02-03T22:56:02.587Z,103255.28
2023-02-03T22:58:31.639Z,103250.59
2023-02-03T23:00:59.334Z,103257.97
2023-02-03T23:03:27.061Z,103258.09
2023-02-03T23:05:56.450Z,103258.00
2023-02-03T23:08:24.219Z,103263.41
2023-02-03T23:10:51.933Z,103268.03
2023-02-03T23:13:19.890Z,103260.06
2023-02-03T23:15:49.391Z,103269.72
2023-02-03T23:18:17.130Z,103265.22
2023-02-03T23:20:44.872Z,103276.13
2023-02-03T23:23:14.112Z,103281.41
2023-02-03T23:25:41.876Z,103275.88
2023-02-03T23:28:09.698Z,103268.59
2023-02-03T23:30:37.492Z,103282.34
2023-02-03T23:33:06.670Z,103275.00
2023-02-03T23:35:45.644Z,103274.88
2023-02-03T23:38:13.972Z,103278.47
2023-02-03T23:40:41.993Z,103271.47
2023-02-03T23:43:09.915Z,103278.53
2023-02-03T23:45:37.666Z,103272.69
2023-02-03T23:48:07.135Z,103272.56
2023-02-03T23:50:34.958Z,103268.75
2023-02-03T23:53:02.678Z,103275.78
2023-02-03T23:55:31.289Z,103269.63
2023-02-03T23:57:59.059Z,103275.66
